Davis Station, South Carolina
Current Conditions -  °F | °C
As of 3:58 PM on Wednesday 26 Nov 2014 (Local Time) from KSSC Reporting Station
Few Clouds Few Clouds  
Wind Chill: 55°   Ceiling: Unl
Heat Index: 55°   Visibility: 10mi
Dew Point: 42°   Wind: 6mph
Humidity: 61%   Direction: 320°NW
Pressure: 30"   Gusts: NA
Location:  33.6°N, 80.26°W
Report Text: KSSC 262058Z AUTO 32005KT 10SM FEW048 13/05 A3000 RMK AO2 SLP160 T01270053 52007 $
Loading
Personal Weather Stations






























Interactive Weather Map New forecast layout! Learn more

10-Day Weather Forecast

Advertisements
Track Severe Weather on mobile